sensor_id;sensor_type;location;lat;lon;timestamp;temperature;humidity
24436;DHT22;12616;52.470;13.436;2024-01-15T00:00:18;2.50;99.90
24436;DHT22;12616;52.470;13.436;2024-01-15T00:02:46;2.40;99.90
24436;DHT22;12616;52.470;13.436;2024-01-15T00:05:13;2.30;99.90
24436;DHT22;12616;52.470;13.436;2024-01-15T00:07:40;2.30;1.00
24436;DHT22;12616;52.470;13.436;2024-01-15T00:10:07;2.30;1.00
24436;DHT22;12616;52.470;13.436;2024-01-15T00:12:34;2.20;1.00
24436;DHT22;12616;52.470;13.436;2024-01-15T00:15:03;2.10;1.00
24436;DHT22;12616;52.470;13.436;2024-01-15T00:17:31;2.10;1.00
24436;DHT22;12616;52.470;13.436;2024-01-15T00:19:58;2.20;1.00
24436;DHT22;12616;52.470;13.436;2024-01-15T00:22:25;2.20;1.00
24436;DHT22;12616;52.470;13.436;2024-01-15T00:24:54;2.10;1.00
24436;DHT22;12616;52.470;13.436;2024-01-15T00:27:21;2.10;1.00
24436;DHT22;12616;52.470;13.436;2024-01-15T00:29:49;2.10;1.00
24436;DHT22;12616;52.470;13.436;2024-01-15T00:32:17;2.10;1.00
24436;DHT22;12616;52.470;13.436;2024-01-15T00:34:46;2.10;1.00
24436;DHT22;12616;52.470;13.436;2024-01-15T00:37:13;2.20;1.00
24436;DHT22;12616;52.470;13.436;2024-01-15T00:39:39;2.20;1.00
24436;DHT22;12616;52.470;13.436;2024-01-15T00:42:06;2.20;1.00
24436;DHT22;12616;52.470;13.436;2024-01-15T00:44:33;2.20;1.00
24436;DHT22;12616;52.470;13.436;2024-01-15T00:46:59;2.20;1.00
24436;DHT22;12616;52.470;13.436;2024-01-15T00:49:27;2.20;1.00
24436;DHT22;12616;52.470;13.436;2024-01-15T00:51:55;2.20;1.00
24436;DHT22;12616;52.470;13.436;2024-01-15T00:54:22;2.20;1.00
24436;DHT22;12616;52.470;13.436;2024-01-15T00:56:49;2.20;1.00
24436;DHT22;12616;52.470;13.436;2024-01-15T00:59:16;2.20;1.00
24436;DHT22;12616;52.470;13.436;2024-01-15T01:01:43;2.20;99.90
24436;DHT22;12616;52.470;13.436;2024-01-15T01:04:12;2.20;99.90
24436;DHT22;12616;52.470;13.436;2024-01-15T01:06:40;2.20;99.90
24436;DHT22;12616;52.470;13.436;2024-01-15T01:09:08;2.30;99.90
24436;DHT22;12616;52.470;13.436;2024-01-15T01:11:35;2.20;99.90
24436;DHT22;12616;52.470;13.436;2024-01-15T01:14:01;2.20;99.90
24436;DHT22;12616;52.470;13.436;2024-01-15T01:16:28;2.10;1.00
24436;DHT22;12616;52.470;13.436;2024-01-15T01:18:56;2.10;1.00
24436;DHT22;12616;52.470;13.436;2024-01-15T01:21:23;2.10;1.00
24436;DHT22;12616;52.470;13.436;2024-01-15T01:23:50;2.10;1.00
24436;DHT22;12616;52.470;13.436;2024-01-15T01:26:18;2.10;1.00
24436;DHT22;12616;52.470;13.436;2024-01-15T01:28:45;2.00;1.00
24436;DHT22;12616;52.470;13.436;2024-01-15T01:31:11;2.10;1.00
24436;DHT22;12616;52.470;13.436;2024-01-15T01:33:38;2.00;1.00
24436;DHT22;12616;52.470;13.436;2024-01-15T01:36:07;2.00;1.00
24436;DHT22;12616;52.470;13.436;2024-01-15T01:38:34;2.00;1.00
24436;DHT22;12616;52.470;13.436;2024-01-15T01:41:01;2.00;1.00
24436;DHT22;12616;52.470;13.436;2024-01-15T01:43:30;2.00;1.00
24436;DHT22;12616;52.470;13.436;2024-01-15T01:45:57;2.00;1.00
24436;DHT22;12616;52.470;13.436;2024-01-15T01:48:25;1.80;1.00
24436;DHT22;12616;52.470;13.436;2024-01-15T01:50:52;1.70;1.00
24436;DHT22;12616;52.470;13.436;2024-01-15T01:53:19;1.70;1.00
24436;DHT22;12616;52.470;13.436;2024-01-15T01:55:47;1.70;1.00
24436;DHT22;12616;52.470;13.436;2024-01-15T01:58:15;1.60;11.10
24436;DHT22;12616;52.470;13.436;2024-01-15T02:00:43;1.70;33.60
24436;DHT22;12616;52.470;13.436;2024-01-15T02:03:10;1.70;29.00
24436;DHT22;12616;52.470;13.436;2024-01-15T02:05:39;1.70;9.60
24436;DHT22;12616;52.470;13.436;2024-01-15T02:08:06;1.70;1.00
24436;DHT22;12616;52.470;13.436;2024-01-15T02:10:33;1.70;1.00
24436;DHT22;12616;52.470;13.436;2024-01-15T02:13:00;1.70;1.00
24436;DHT22;12616;52.470;13.436;2024-01-15T02:15:28;1.70;1.00
24436;DHT22;12616;52.470;13.436;2024-01-15T02:18:01;1.70;1.00
24436;DHT22;12616;52.470;13.436;2024-01-15T02:20:29;1.70;1.00
24436;DHT22;12616;52.470;13.436;2024-01-15T02:23:07;1.70;1.00
24436;DHT22;12616;52.470;13.436;2024-01-15T02:25:35;1.70;1.00
24436;DHT22;12616;52.470;13.436;2024-01-15T02:28:03;1.70;1.00
24436;DHT22;12616;52.470;13.436;2024-01-15T02:30:31;1.70;1.00
24436;DHT22;12616;52.470;13.436;2024-01-15T02:32:58;1.70;1.00
24436;DHT22;12616;52.470;13.436;2024-01-15T02:35:25;1.70;1.00
24436;DHT22;12616;52.470;13.436;2024-01-15T02:37:52;1.70;1.00
24436;DHT22;12616;52.470;13.436;2024-01-15T02:40:20;1.70;1.00
24436;DHT22;12616;52.470;13.436;2024-01-15T02:42:47;1.70;1.00
24436;DHT22;12616;52.470;13.436;2024-01-15T02:45:14;1.70;1.00
24436;DHT22;12616;52.470;13.436;2024-01-15T02:47:41;1.70;99.90
24436;DHT22;12616;52.470;13.436;2024-01-15T02:50:08;1.70;99.90
24436;DHT22;12616;52.470;13.436;2024-01-15T02:52:35;1.70;99.90
24436;DHT22;12616;52.470;13.436;2024-01-15T02:55:02;1.80;99.90
24436;DHT22;12616;52.470;13.436;2024-01-15T02:57:31;1.70;99.90
24436;DHT22;12616;52.470;13.436;2024-01-15T02:59:58;1.80;99.90
24436;DHT22;12616;52.470;13.436;2024-01-15T03:02:25;1.80;99.90
24436;DHT22;12616;52.470;13.436;2024-01-15T03:04:52;1.90;99.90
24436;DHT22;12616;52.470;13.436;2024-01-15T03:07:25;1.80;99.90
24436;DHT22;12616;52.470;13.436;2024-01-15T03:09:54;1.80;99.90
24436;DHT22;12616;52.470;13.436;2024-01-15T03:12:21;1.80;99.90
24436;DHT22;12616;52.470;13.436;2024-01-15T03:14:57;1.80;99.90
24436;DHT22;12616;52.470;13.436;2024-01-15T03:17:30;1.90;99.90
24436;DHT22;12616;52.470;13.436;2024-01-15T03:19:57;1.80;99.90
24436;DHT22;12616;52.470;13.436;2024-01-15T03:22:24;1.80;99.90
24436;DHT22;12616;52.470;13.436;2024-01-15T03:24:52;2.10;99.90
24436;DHT22;12616;52.470;13.436;2024-01-15T03:27:20;1.90;99.90
24436;DHT22;12616;52.470;13.436;2024-01-15T03:29:47;1.90;99.90
24436;DHT22;12616;52.470;13.436;2024-01-15T03:32:15;1.90;99.90
24436;DHT22;12616;52.470;13.436;2024-01-15T03:34:47;1.80;99.90
24436;DHT22;12616;52.470;13.436;2024-01-15T03:37:18;2.40;99.90
24436;DHT22;12616;52.470;13.436;2024-01-15T03:39:47;1.90;99.90
24436;DHT22;12616;52.470;13.436;2024-01-15T03:42:19;1.90;99.90
24436;DHT22;12616;52.470;13.436;2024-01-15T03:44:48;1.90;99.90
24436;DHT22;12616;52.470;13.436;2024-01-15T03:47:17;2.30;96.70
24436;DHT22;12616;52.470;13.436;2024-01-15T03:49:44;2.20;36.80
24436;DHT22;12616;52.470;13.436;2024-01-15T03:52:13;1.90;43.20
24436;DHT22;12616;52.470;13.436;2024-01-15T03:54:40;1.90;36.30
24436;DHT22;12616;52.470;13.436;2024-01-15T03:57:07;2.50;5.10
24436;DHT22;12616;52.470;13.436;2024-01-15T03:59:35;2.00;1.00
24436;DHT22;12616;52.470;13.436;2024-01-15T04:02:05;2.00;1.00
24436;DHT22;12616;52.470;13.436;2024-01-15T04:04:36;2.00;22.40
24436;DHT22;12616;52.470;13.436;2024-01-15T04:07:03;2.00;1.00
24436;DHT22;12616;52.470;13.436;2024-01-15T04:09:30;2.10;1.00
24436;DHT22;12616;52.470;13.436;2024-01-15T04:12:12;2.10;1.00
24436;DHT22;12616;52.470;13.436;2024-01-15T04:14:43;2.00;1.00
24436;DHT22;12616;52.470;13.436;2024-01-15T04:17:14;2.00;1.00
24436;DHT22;12616;52.470;13.436;2024-01-15T04:19:43;1.90;1.00
24436;DHT22;12616;52.470;13.436;2024-01-15T04:22:13;2.00;1.00
24436;DHT22;12616;52.470;13.436;2024-01-15T04:24:40;2.00;1.00
24436;DHT22;12616;52.470;13.436;2024-01-15T04:27:08;2.00;1.00
24436;DHT22;12616;52.470;13.436;2024-01-15T04:29:37;2.00;1.00
24436;DHT22;12616;52.470;13.436;2024-01-15T04:32:05;2.00;1.00
24436;DHT22;12616;52.470;13.436;2024-01-15T04:34:32;1.90;1.00
24436;DHT22;12616;52.470;13.436;2024-01-15T04:37:01;2.00;1.00
24436;DHT22;12616;52.470;13.436;2024-01-15T04:39:29;2.00;1.00
24436;DHT22;12616;52.470;13.436;2024-01-15T04:41:56;2.00;1.00
24436;DHT22;12616;52.470;13.436;2024-01-15T04:44:25;2.10;1.00
24436;DHT22;12616;52.470;13.436;2024-01-15T04:46:54;2.10;1.00
24436;DHT22;12616;52.470;13.436;2024-01-15T04:49:25;2.10;1.00
24436;DHT22;12616;52.470;13.436;2024-01-15T04:51:58;2.20;1.00
24436;DHT22;12616;52.470;13.436;2024-01-15T04:54:29;2.10;1.00
24436;DHT22;12616;52.470;13.436;2024-01-15T04:56:58;2.10;99.90
24436;DHT22;12616;52.470;13.436;2024-01-15T04:59:29;2.70;1.00
24436;DHT22;12616;52.470;13.436;2024-01-15T05:02:12;2.10;99.90
24436;DHT22;12616;52.470;13.436;2024-01-15T05:04:44;2.10;99.90
24436;DHT22;12616;52.470;13.436;2024-01-15T05:07:32;2.10;99.90
24436;DHT22;12616;52.470;13.436;2024-01-15T05:10:02;2.10;99.90
24436;DHT22;12616;52.470;13.436;2024-01-15T05:12:41;2.10;99.90
24436;DHT22;12616;52.470;13.436;2024-01-15T05:15:29;2.20;99.90
24436;DHT22;12616;52.470;13.436;2024-01-15T05:18:13;2.20;99.90
24436;DHT22;12616;52.470;13.436;2024-01-15T05:23:32;2.20;1.00
24436;DHT22;12616;52.470;13.436;2024-01-15T05:26:03;2.20;1.00
24436;DHT22;12616;52.470;13.436;2024-01-15T05:28:32;2.10;1.00
24436;DHT22;12616;52.470;13.436;2024-01-15T05:31:02;2.10;1.00
24436;DHT22;12616;52.470;13.436;2024-01-15T05:33:34;2.10;1.00
24436;DHT22;12616;52.470;13.436;2024-01-15T05:36:07;2.20;1.00
24436;DHT22;12616;52.470;13.436;2024-01-15T05:38:34;2.10;1.00
24436;DHT22;12616;52.470;13.436;2024-01-15T05:41:08;2.10;1.00
24436;DHT22;12616;52.470;13.436;2024-01-15T05:43:37;2.60;1.00
24436;DHT22;12616;52.470;13.436;2024-01-15T05:46:07;2.20;1.00
24436;DHT22;12616;52.470;13.436;2024-01-15T05:48:40;2.20;1.00
24436;DHT22;12616;52.470;13.436;2024-01-15T05:52:19;2.30;1.00
24436;DHT22;12616;52.470;13.436;2024-01-15T05:54:42;2.30;1.00
24436;DHT22;12616;52.470;13.436;2024-01-15T05:57:35;2.30;1.00
24436;DHT22;12616;52.470;13.436;2024-01-15T06:00:20;2.30;1.00
24436;DHT22;12616;52.470;13.436;2024-01-15T06:02:49;2.20;1.00
24436;DHT22;12616;52.470;13.436;2024-01-15T06:05:28;2.10;1.00
24436;DHT22;12616;52.470;13.436;2024-01-15T06:07:56;2.10;55.90
24436;DHT22;12616;52.470;13.436;2024-01-15T06:10:28;2.10;23.40
24436;DHT22;12616;52.470;13.436;2024-01-15T06:12:59;2.00;83.50
24436;DHT22;12616;52.470;13.436;2024-01-15T06:15:26;2.00;36.80
24436;DHT22;12616;52.470;13.436;2024-01-15T06:18:05;2.00;27.00
24436;DHT22;12616;52.470;13.436;2024-01-15T06:26:26;2.10;1.00
24436;DHT22;12616;52.470;13.436;2024-01-15T06:30:16;2.10;1.00
24436;DHT22;12616;52.470;13.436;2024-01-15T06:32:30;2.10;1.00
24436;DHT22;12616;52.470;13.436;2024-01-15T06:35:40;2.10;1.00
24436;DHT22;12616;52.470;13.436;2024-01-15T06:38:29;2.10;1.00
24436;DHT22;12616;52.470;13.436;2024-01-15T06:41:19;2.00;43.10
24436;DHT22;12616;52.470;13.436;2024-01-15T07:16:34;2.40;1.00
24436;DHT22;12616;52.470;13.436;2024-01-15T17:27:44;1.50;1.00
24436;DHT22;12616;52.470;13.436;2024-01-15T17:31:05;1.50;1.00
24436;DHT22;12616;52.470;13.436;2024-01-15T17:33:47;1.50;1.00
24436;DHT22;12616;52.470;13.436;2024-01-15T17:39:50;1.50;1.00
24436;DHT22;12616;52.470;13.436;2024-01-15T17:42:21;1.50;1.00
24436;DHT22;12616;52.470;13.436;2024-01-15T17:45:10;1.60;1.00
24436;DHT22;12616;52.470;13.436;2024-01-15T17:47:55;1.50;1.00
24436;DHT22;12616;52.470;13.436;2024-01-15T17:50:44;1.50;1.00
24436;DHT22;12616;52.470;13.436;2024-01-15T17:53:54;1.60;1.00
24436;DHT22;12616;52.470;13.436;2024-01-15T17:56:51;1.50;1.00
24436;DHT22;12616;52.470;13.436;2024-01-15T17:59:35;1.70;1.00
24436;DHT22;12616;52.470;13.436;2024-01-15T18:07:38;1.60;1.00
24436;DHT22;12616;52.470;13.436;2024-01-15T18:13:10;1.70;1.00
24436;DHT22;12616;52.470;13.436;2024-01-15T18:16:05;1.70;1.00
24436;DHT22;12616;52.470;13.436;2024-01-15T18:19:07;1.60;1.00
24436;DHT22;12616;52.470;13.436;2024-01-15T18:22:13;1.70;1.00
24436;DHT22;12616;52.470;13.436;2024-01-15T18:25:14;1.70;1.00
24436;DHT22;12616;52.470;13.436;2024-01-15T18:27:50;1.70;1.00
24436;DHT22;12616;52.470;13.436;2024-01-15T18:30:22;1.80;1.00
24436;DHT22;12616;52.470;13.436;2024-01-15T18:32:58;1.80;1.00
24436;DHT22;12616;52.470;13.436;2024-01-15T18:36:05;2.00;1.00
24436;DHT22;12616;52.470;13.436;2024-01-15T18:42:10;1.80;1.00
24436;DHT22;12616;52.470;13.436;2024-01-15T18:45:23;2.00;99.90
24436;DHT22;12616;52.470;13.436;2024-01-15T18:48:22;1.90;99.90
24436;DHT22;12616;52.470;13.436;2024-01-15T18:54:59;1.70;99.90
24436;DHT22;12616;52.470;13.436;2024-01-15T19:02:13;1.80;99.90
24436;DHT22;12616;52.470;13.436;2024-01-15T19:08:25;1.60;99.90
24436;DHT22;12616;52.470;13.436;2024-01-15T19:11:54;1.50;99.90
24436;DHT22;12616;52.470;13.436;2024-01-15T19:14:48;1.40;1.00
24436;DHT22;12616;52.470;13.436;2024-01-15T19:35:09;1.20;99.90
24436;DHT22;12616;52.470;13.436;2024-01-15T19:37:54;1.10;1.00
24436;DHT22;12616;52.470;13.436;2024-01-15T19:40:25;1.00;99.90
24436;DHT22;12616;52.470;13.436;2024-01-15T19:42:57;1.00;99.90
24436;DHT22;12616;52.470;13.436;2024-01-15T19:45:31;1.10;1.00
24436;DHT22;12616;52.470;13.436;2024-01-15T19:48:03;1.10;1.00
24436;DHT22;12616;52.470;13.436;2024-01-15T19:50:33;1.20;1.00
24436;DHT22;12616;52.470;13.436;2024-01-15T19:53:07;1.70;99.90
24436;DHT22;12616;52.470;13.436;2024-01-15T19:55:48;1.00;99.90
24436;DHT22;12616;52.470;13.436;2024-01-15T19:58:18;1.10;1.00
24436;DHT22;12616;52.470;13.436;2024-01-15T20:00:51;1.10;1.00
24436;DHT22;12616;52.470;13.436;2024-01-15T20:03:34;1.10;1.00
24436;DHT22;12616;52.470;13.436;2024-01-15T20:06:07;1.00;99.90
24436;DHT22;12616;52.470;13.436;2024-01-15T20:42:55;0.70;1.00
24436;DHT22;12616;52.470;13.436;2024-01-15T20:52:59;0.70;99.90
24436;DHT22;12616;52.470;13.436;2024-01-15T21:03:00;0.90;1.00
24436;DHT22;12616;52.470;13.436;2024-01-15T21:06:06;0.90;1.00
24436;DHT22;12616;52.470;13.436;2024-01-15T21:30:33;0.70;99.90
24436;DHT22;12616;52.470;13.436;2024-01-15T21:36:35;0.70;99.90
24436;DHT22;12616;52.470;13.436;2024-01-15T21:39:09;1.00;99.90
24436;DHT22;12616;52.470;13.436;2024-01-15T21:42:09;0.70;99.90
24436;DHT22;12616;52.470;13.436;2024-01-15T21:59:34;0.80;99.90
24436;DHT22;12616;52.470;13.436;2024-01-15T22:02:32;0.80;99.90
24436;DHT22;12616;52.470;13.436;2024-01-15T22:05:13;0.70;99.90
24436;DHT22;12616;52.470;13.436;2024-01-15T22:08:12;0.70;99.90
24436;DHT22;12616;52.470;13.436;2024-01-15T22:11:31;0.70;99.90
24436;DHT22;12616;52.470;13.436;2024-01-15T22:14:40;0.60;99.90
24436;DHT22;12616;52.470;13.436;2024-01-15T22:25:34;0.60;99.90
24436;DHT22;12616;52.470;13.436;2024-01-15T22:28:16;0.50;99.90
24436;DHT22;12616;52.470;13.436;2024-01-15T22:31:07;0.50;99.90
24436;DHT22;12616;52.470;13.436;2024-01-15T22:44:15;0.60;99.90
24436;DHT22;12616;52.470;13.436;2024-01-15T22:47:18;0.60;99.90
24436;DHT22;12616;52.470;13.436;2024-01-15T22:50:08;0.60;99.90
24436;DHT22;12616;52.470;13.436;2024-01-15T22:52:46;0.60;99.90
24436;DHT22;12616;52.470;13.436;2024-01-15T22:55:20;0.60;99.90
24436;DHT22;12616;52.470;13.436;2024-01-15T22:58:02;0.70;99.90
24436;DHT22;12616;52.470;13.436;2024-01-15T23:00:53;0.40;25.00
24436;DHT22;12616;52.470;13.436;2024-01-15T23:03:38;0.90;99.90
24436;DHT22;12616;52.470;13.436;2024-01-15T23:06:24;0.60;99.90
24436;DHT22;12616;52.470;13.436;2024-01-15T23:08:52;0.40;99.90
24436;DHT22;12616;52.470;13.436;2024-01-15T23:11:38;0.20;99.90
24436;DHT22;12616;52.470;13.436;2024-01-15T23:14:11;0.10;99.90
24436;DHT22;12616;52.470;13.436;2024-01-15T23:16:49;0.90;99.90
24436;DHT22;12616;52.470;13.436;2024-01-15T23:19:20;0.10;99.90
24436;DHT22;12616;52.470;13.436;2024-01-15T23:21:59;0.10;99.90
24436;DHT22;12616;52.470;13.436;2024-01-15T23:24:36;0.20;99.90
24436;DHT22;12616;52.470;13.436;2024-01-15T23:27:07;0.40;99.90
24436;DHT22;12616;52.470;13.436;2024-01-15T23:29:45;0.30;99.90
24436;DHT22;12616;52.470;13.436;2024-01-15T23:32:17;0.30;99.90
24436;DHT22;12616;52.470;13.436;2024-01-15T23:35:04;0.20;99.90
24436;DHT22;12616;52.470;13.436;2024-01-15T23:37:43;0.20;99.90
24436;DHT22;12616;52.470;13.436;2024-01-15T23:40:19;0.60;99.90
24436;DHT22;12616;52.470;13.436;2024-01-15T23:42:53;0.50;99.90
24436;DHT22;12616;52.470;13.436;2024-01-15T23:51:47;0.30;99.90
24436;DHT22;12616;52.470;13.436;2024-01-15T23:54:35;0.30;68.50
24436;DHT22;12616;52.470;13.436;2024-01-15T23:57:25;0.50;99.90
